Green Pond, SC (29446)

1:04 AM EST on December 25, 2014 (GMT -0500)
MesoWest NERRS METEOROLOGICAL SITE AT ACE SC US | Change Station
CLOSE
Current Station
Personal Weather Station
Location: Green Pond, SC
Elevation: 13 ft
Nearby Weather Stations

Elev 13 ft 32.56 °N, 80.45 °W | Updated 6 hours ago

Overcast
Overcast
59 °F
Feels Like 59 °F
N
16
Wind Variable Wind from West
Gusts 25 mph

Today
High -- | Low -- °F
--% Chance of Precip.
Yesterday
High -- | Low -- °F
Precip. -- in
7:21 AM 5:22 PM
Waxing Crescent, 13% visible
Pressure 29.85 in
Visibility 10.0 miles
Clouds Scattered Clouds 1400 ft
Overcast 9000 ft
Dew Point 51 °F
Humidity 74%
Rainfall -999.00 in
Snow Depth Not available.
UV 0 out of 12
Pollen .40 out of 12
Air Quality Not available.
Flu Activity Not available.
METAR KNBC 250556Z AUTO 28011KT 10SM SCT014 OVC090 18/16 A2985 RMK AO2 PRESRR SLP107 60001 T01780156 10194 20178 51020

More Conditions Fewer Conditions

Pressure 29.85 in
Visibility 10.0 miles
Clouds Scattered Clouds 1400 ft
Overcast 9000 ft
Dew Point 51 °F
Humidity 74%
Rainfall -999.00 in
Snow Depth Not available.
UV 0 out of 12
Pollen .40 out of 12
Air Quality Not available.
Flu Activity Not available.
METAR KNBC 250556Z AUTO 28011KT 10SM SCT014 OVC090 18/16 A2985 RMK AO2 PRESRR SLP107 60001 T01780156 10194 20178 51020

More Conditions Fewer Conditions

10-Day Weather Forecast

Almanac

Astronomy

Dec. 25, 2014 Rise Set
Actual Time
Civil Twilight
Nautical Twilight
Astronomical Twilight
Moon
Length of Visible Light
Length of Day
Tomorrow will be .
, % of the Moon is Illuminated

Today's Extremes

State Highs State Lows

Community

WunderPhotos

Upload Photos

1,780,245 photos uploaded!

WunderBlogs® & News

Nearby

Air Quality

  Air Quality AQ Index Pollutant
Not available.

Snow Depth

Station Depth Elevation

Earthquake Activity

City Distance Mag. Time & Date
Minimum magnitude displayed is 2.5.

Coastal Water Temperatures

Place Temperature

Nearby Weather Stations